Time;durP1;ratioP1;P1;durP2;ratioP2;P2;SDS_P1;SDS_P2;PMS_P1;PMS_P2;Temp;Humidity;BMP_temperature;BMP_pressure;BME280_temperature;BME280_humidity;BME280_pressure;Samples;Min_cycle;Max_cycle;Signal;HPM_P1;HPM_P2
2023/04/10 00:00:31;;;;;;;12.48;9.40;;;20.10;53.60;;;;;;5091960;28;20133;-64
2023/04/10 00:03:00;;;;;;;13.45;9.27;;;20.10;53.70;;;;;;5092304;28;20390;-64
2023/04/10 00:05:26;;;;;;;14.18;9.02;;;20.10;53.60;;;;;;5092607;28;20111;-64
2023/04/10 00:07:52;;;;;;;13.07;9.80;;;20.00;53.50;;;;;;5090769;28;20131;-64
2023/04/10 00:10:18;;;;;;;11.75;9.13;;;20.10;53.50;;;;;;5092115;28;20118;-64
2023/04/10 00:12:44;;;;;;;13.32;9.48;;;20.00;53.50;;;;;;5092691;28;20040;-64
2023/04/10 00:15:09;;;;;;;13.85;10.02;;;20.00;53.50;;;;;;5091365;28;20394;-64
2023/04/10 00:17:35;;;;;;;13.57;10.27;;;20.00;53.50;;;;;;5092274;28;20048;-65
2023/04/10 00:20:01;;;;;;;16.33;11.57;;;20.00;54.20;;;;;;5092097;28;20048;-65
2023/04/10 00:22:26;;;;;;;13.68;9.45;;;20.00;53.50;;;;;;5091319;28;20055;-64
2023/04/10 00:24:52;;;;;;;14.18;9.93;;;20.00;53.50;;;;;;5092482;28;20052;-64
2023/04/10 00:27:17;;;;;;;15.43;10.15;;;20.00;53.50;;;;;;5091320;28;20118;-64
2023/04/10 00:29:43;;;;;;;15.20;10.63;;;20.00;53.50;;;;;;5091268;28;20043;-64
2023/04/10 00:32:09;;;;;;;14.55;10.07;;;20.00;53.50;;;;;;5092107;28;20452;-64
2023/04/10 00:34:34;;;;;;;14.75;10.80;;;19.90;53.40;;;;;;5090320;28;20756;-64
2023/04/10 00:37:00;;;;;;;14.32;10.77;;;19.90;53.50;;;;;;5091869;28;20094;-64
2023/04/10 00:39:26;;;;;;;14.27;10.90;;;19.90;53.40;;;;;;5092199;28;20048;-64
2023/04/10 00:41:51;;;;;;;13.48;10.65;;;19.90;53.40;;;;;;5091421;28;20048;-64
2023/04/10 00:44:17;;;;;;;14.45;10.65;;;19.90;53.40;;;;;;5090894;28;20051;-64
2023/04/10 00:46:42;;;;;;;15.77;11.30;;;19.90;53.40;;;;;;5094523;28;20036;-64
2023/04/10 00:49:08;;;;;;;15.68;10.90;;;19.90;53.30;;;;;;5093422;28;20058;-64
2023/04/10 00:51:34;;;;;;;15.32;11.20;;;19.90;53.40;;;;;;5077561;28;20471;-64
2023/04/10 00:54:01;;;;;;;15.68;11.13;;;19.90;53.40;;;;;;5095619;28;20050;-64
2023/04/10 00:56:26;;;;;;;14.07;11.85;;;19.90;53.20;;;;;;5093514;28;20047;-64
2023/04/10 00:58:52;;;;;;;15.63;11.63;;;19.90;53.30;;;;;;5094338;28;20040;-64
2023/04/10 01:01:17;;;;;;;17.65;12.05;;;19.80;53.20;;;;;;5094995;28;20074;-64
2023/04/10 01:03:43;;;;;;;16.27;11.85;;;19.90;53.20;;;;;;5094913;28;20055;-64
2023/04/10 01:06:46;;;;;;;15.95;12.30;;;19.80;53.10;;;;;;5093856;28;20483;-64
2023/04/10 01:09:52;;;;;;;16.55;12.43;;;19.80;53.10;;;;;;5079592;28;20047;-64
2023/04/10 01:12:42;;;;;;;17.33;12.95;;;19.90;53.10;;;;;;5044677;28;20059;-64
2023/04/10 01:15:14;;;;;;;16.65;12.60;;;19.80;53.10;;;;;;5093911;28;20400;-64
2023/04/10 01:18:04;;;;;;;16.52;12.45;;;19.80;53.80;;;;;;5077320;28;20044;-64
2023/04/10 01:20:34;;;;;;;17.05;12.63;;;19.80;53.10;;;;;;5093968;28;20487;-64
2023/04/10 01:23:25;;;;;;;17.88;13.15;;;19.80;53.10;;;;;;5095100;28;20055;-64
2023/04/10 01:26:04;;;;;;;17.58;12.57;;;19.80;53.10;;;;;;5077890;28;20036;-64
2023/04/10 01:28:52;;;;;;;17.05;13.23;;;19.80;53.10;;;;;;5060656;28;20097;-64
2023/04/10 01:32:03;;;;;;;18.50;13.55;;;19.70;53.00;;;;;;5075917;28;20086;-64
2023/04/10 01:34:35;;;;;;;18.33;12.98;;;19.80;53.00;;;;;;5090763;28;20539;-64
2023/04/10 01:37:03;;;;;;;20.10;13.73;;;19.70;53.00;;;;;;5076972;28;20441;-64
2023/04/10 01:39:29;;;;;;;18.90;13.60;;;19.70;52.90;;;;;;5076437;28;20475;-64
2023/04/10 01:41:55;;;;;;;18.52;14.00;;;19.70;53.00;;;;;;5076401;28;20051;-64
2023/04/10 01:44:24;;;;;;;19.85;13.63;;;19.70;52.90;;;;;;5076675;28;20048;-64
2023/04/10 01:46:50;;;;;;;17.50;13.80;;;19.70;52.90;;;;;;5075939;28;20483;-64
2023/04/10 01:49:15;;;;;;;18.05;13.75;;;19.70;52.90;;;;;;5076093;28;20052;-64
2023/04/10 01:51:41;;;;;;;18.48;14.10;;;19.70;52.90;;;;;;5094033;28;20032;-65
2023/04/10 01:54:06;;;;;;;19.35;14.00;;;19.70;52.90;;;;;;5093235;28;20479;-64
2023/04/10 01:56:32;;;;;;;17.40;13.98;;;19.70;52.90;;;;;;5092884;28;20051;-64
2023/04/10 01:58:58;;;;;;;19.52;14.15;;;19.70;52.90;;;;;;5075210;28;20036;-64
2023/04/10 02:01:23;;;;;;;18.90;14.68;;;19.70;52.90;;;;;;5075799;28;20043;-64
2023/04/10 02:03:49;;;;;;;16.98;13.52;;;19.70;52.90;;;;;;5094074;28;20109;-64
2023/04/10 02:06:21;;;;;;;18.70;14.25;;;19.70;52.90;;;;;;5093062;28;20048;-64
2023/04/10 02:09:08;;;;;;;18.30;14.40;;;19.60;52.80;;;;;;5092404;28;20105;-64
2023/04/10 02:11:57;;;;;;;20.37;14.73;;;19.70;52.80;;;;;;5093076;28;20040;-64
2023/04/10 02:14:27;;;;;;;18.10;13.70;;;19.60;52.70;;;;;;5082772;28;20314;-64
2023/04/10 02:16:53;;;;;;;19.10;14.40;;;19.60;52.80;;;;;;5093016;28;20097;-64
2023/04/10 02:19:19;;;;;;;19.70;14.85;;;19.60;52.70;;;;;;5075573;28;20050;-64
2023/04/10 02:21:44;;;;;;;20.55;15.70;;;19.60;53.40;;;;;;5074917;28;20056;-64
2023/04/10 02:24:10;;;;;;;20.77;15.10;;;19.60;52.70;;;;;;5092706;28;20051;-64
2023/04/10 02:26:48;;;;;;;18.63;14.52;;;19.60;52.70;;;;;;5092797;28;20487;-64
2023/04/10 02:29:13;;;;;;;;;;;19.60;52.70;;;;;;5094055;28;20040;-64
2023/04/10 02:31:40;;;;;;;22.05;15.85;;;19.50;52.60;;;;;;5093752;28;20337;-65
2023/04/10 02:34:06;;;;;;;18.33;14.65;;;19.50;52.70;;;;;;5091829;28;20047;-64
2023/04/10 02:36:31;;;;;;;20.35;14.82;;;19.60;52.70;;;;;;5092713;28;20427;-64
2023/04/10 02:38:57;;;;;;;21.63;14.95;;;19.50;52.60;;;;;;5093588;28;20499;-65
2023/04/10 02:41:23;;;;;;;20.33;15.43;;;19.50;52.70;;;;;;5092863;28;20044;-64
2023/04/10 02:43:48;;;;;;;20.60;15.35;;;19.50;52.60;;;;;;5093761;28;20123;-64
2023/04/10 02:46:14;;;;;;;19.45;15.57;;;19.50;52.60;;;;;;5092990;28;20474;-64
2023/04/10 02:48:40;;;;;;;19.40;15.45;;;19.50;52.60;;;;;;5091768;28;20043;-64
2023/04/10 02:51:06;;;;;;;20.00;15.90;;;19.50;52.60;;;;;;5093386;28;20506;-64
2023/04/10 02:53:32;;;;;;;20.48;15.35;;;19.50;52.50;;;;;;5092410;28;20051;-64
2023/04/10 02:55:57;;;;;;;21.80;15.57;;;19.50;52.50;;;;;;5092298;28;20123;-64
2023/04/10 02:58:23;;;;;;;21.20;15.48;;;19.50;52.50;;;;;;5093542;28;20043;-64
2023/04/10 03:00:49;;;;;;;20.60;15.52;;;19.50;52.50;;;;;;5093108;28;20044;-64
2023/04/10 03:03:15;;;;;;;22.38;15.77;;;19.50;52.50;;;;;;5092309;28;20136;-64
2023/04/10 03:05:41;;;;;;;21.15;15.05;;;19.50;52.40;;;;;;5092271;28;20510;-64
2023/04/10 03:08:06;;;;;;;20.05;15.27;;;19.50;52.40;;;;;;5092633;28;20039;-64
2023/04/10 03:10:32;;;;;;;20.05;15.88;;;19.50;52.40;;;;;;5092177;28;20039;-64
2023/04/10 03:12:58;;;;;;;21.00;15.80;;;19.50;52.40;;;;;;5092965;28;20047;-64
2023/04/10 03:15:23;;;;;;;21.80;16.05;;;19.50;52.30;;;;;;5092889;28;20046;-64
2023/04/10 03:17:49;;;;;;;20.75;15.75;;;19.50;53.00;;;;;;5092221;28;20135;-64
2023/04/10 03:20:15;;;;;;;21.30;16.70;;;19.50;52.30;;;;;;5091357;28;20040;-64
2023/04/10 03:22:40;;;;;;;23.83;16.77;;;19.50;52.30;;;;;;5092396;28;20109;-64
2023/04/10 03:25:06;;;;;;;21.85;16.25;;;19.50;52.20;;;;;;5091505;28;20513;-64
2023/04/10 03:27:33;;;;;;;20.48;16.73;;;19.50;52.40;;;;;;5091724;28;20119;-64
2023/04/10 03:29:59;;;;;;;20.20;15.75;;;19.50;52.30;;;;;;5092635;28;20101;-64
2023/04/10 03:32:27;;;;;;;22.02;16.05;;;19.50;52.20;;;;;;5092274;28;20082;-64
2023/04/10 03:34:52;;;;;;;19.65;15.75;;;19.50;52.10;;;;;;5091903;28;20406;-64
2023/04/10 03:37:18;;;;;;;20.55;15.85;;;19.50;52.10;;;;;;5091969;28;20033;-64
2023/04/10 03:39:44;;;;;;;20.75;16.42;;;19.60;52.20;;;;;;5092495;28;20085;-64
2023/04/10 03:42:10;;;;;;;21.50;16.23;;;19.60;52.10;;;;;;5092648;28;20037;-65
2023/04/10 03:44:36;;;;;;;21.60;16.50;;;19.60;52.20;;;;;;5092014;28;20056;-64
2023/04/10 03:47:02;;;;;;;22.35;16.55;;;19.60;52.20;;;;;;5091474;28;20040;-64
2023/04/10 03:49:28;;;;;;;23.27;16.58;;;19.60;52.20;;;;;;5091653;28;20097;-64
2023/04/10 03:51:53;;;;;;;21.00;15.80;;;19.60;52.20;;;;;;5091940;28;20458;-64
2023/04/10 03:54:19;;;;;;;21.80;16.23;;;19.70;52.20;;;;;;5092182;28;20074;-64
2023/04/10 03:56:44;;;;;;;23.42;16.52;;;19.70;52.20;;;;;;5091509;28;20101;-64
2023/04/10 03:59:10;;;;;;;22.50;17.00;;;19.70;52.10;;;;;;5090511;28;20383;-64
2023/04/10 04:01:35;;;;;;;22.33;16.67;;;19.70;52.10;;;;;;5091994;28;20128;-64
2023/04/10 04:04:01;;;;;;;24.65;17.00;;;19.70;52.10;;;;;;5074337;28;20079;-64
2023/04/10 04:06:26;;;;;;;23.38;16.88;;;19.70;52.00;;;;;;5091268;28;20391;-64
2023/04/10 04:08:52;;;;;;;23.27;17.33;;;19.70;52.00;;;;;;5090936;28;20051;-65
2023/04/10 04:11:17;;;;;;;22.50;16.70;;;19.70;51.90;;;;;;5092279;28;20044;-64
2023/04/10 04:13:43;;;;;;;21.33;16.58;;;19.80;52.00;;;;;;5091815;28;20040;-64
2023/04/10 04:16:09;;;;;;;23.33;17.98;;;19.80;51.90;;;;;;5092075;28;20047;-64
2023/04/10 04:18:35;;;;;;;22.75;16.85;;;19.80;51.90;;;;;;5092532;28;20050;-64
2023/04/10 04:21:00;;;;;;;22.30;16.88;;;19.80;51.90;;;;;;5092855;28;20056;-64
2023/04/10 04:23:26;;;;;;;19.70;16.17;;;19.90;51.90;;;;;;5096369;28;20454;-64
2023/04/10 04:25:53;;;;;;;21.75;16.85;;;19.80;51.80;;;;;;5096315;28;20040;-64
2023/04/10 04:28:18;;;;;;;21.73;16.52;;;19.80;51.80;;;;;;5095069;28;20044;-64
2023/04/10 04:30:44;;;;;;;23.48;17.15;;;19.80;51.80;;;;;;5096253;28;20044;-64
2023/04/10 04:33:09;;;;;;;22.98;17.80;;;19.90;51.80;;;;;;5095756;28;20047;-64
2023/04/10 04:35:35;;;;;;;23.42;17.45;;;19.90;51.80;;;;;;5095519;28;20051;-64
2023/04/10 04:38:01;;;;;;;24.13;17.77;;;19.90;51.70;;;;;;5111416;28;20135;-64
2023/04/10 04:40:26;;;;;;;23.85;16.85;;;19.90;51.70;;;;;;5093999;28;20400;-64
2023/04/10 04:42:52;;;;;;;22.45;17.67;;;19.90;51.70;;;;;;5096027;28;20051;-64
2023/04/10 04:45:17;;;;;;;22.58;17.45;;;19.90;51.70;;;;;;5095680;28;20040;-64
2023/04/10 04:47:43;;;;;;;23.77;17.88;;;19.90;52.40;;;;;;5095125;28;20128;-64
2023/04/10 04:50:09;;;;;;;23.55;17.10;;;19.90;51.70;;;;;;5094111;28;20040;-64
2023/04/10 04:52:34;;;;;;;22.33;17.33;;;19.90;51.60;;;;;;5095480;28;20089;-64
2023/04/10 04:55:00;;;;;;;25.63;18.95;;;19.90;51.60;;;;;;5094900;28;20036;-64
2023/04/10 04:57:25;;;;;;;22.67;17.65;;;20.00;51.60;;;;;;5095840;28;20044;-64
2023/04/10 04:59:51;;;;;;;23.17;16.98;;;20.00;51.60;;;;;;5095644;28;20036;-64
2023/04/10 05:02:17;;;;;;;24.65;18.25;;;20.00;51.60;;;;;;5094243;28;20044;-64
2023/04/10 05:04:43;;;;;;;23.98;18.60;;;20.00;51.60;;;;;;5095621;28;20052;-64
2023/04/10 05:07:09;;;;;;;24.55;18.60;;;20.00;51.60;;;;;;5094006;28;20048;-64
2023/04/10 05:09:34;;;;;;;25.25;18.85;;;20.00;51.50;;;;;;5094745;28;20052;-64
2023/04/10 05:12:01;;;;;;;23.83;18.42;;;20.00;51.50;;;;;;5110750;28;20050;-64
2023/04/10 05:14:26;;;;;;;24.60;18.13;;;20.00;51.50;;;;;;5095636;28;20040;-64
2023/04/10 05:16:52;;;;;;;25.65;18.67;;;20.00;51.50;;;;;;5094639;28;20040;-64
2023/04/10 05:19:17;;;;;;;27.77;19.23;;;20.00;51.50;;;;;;5093804;28;20479;-64
2023/04/10 05:21:43;;;;;;;25.42;18.48;;;20.00;51.50;;;;;;5110657;28;20052;-64
2023/04/10 05:24:08;;;;;;;24.92;19.33;;;20.00;51.50;;;;;;5094098;28;20048;-64
2023/04/10 05:26:34;;;;;;;25.77;18.83;;;20.00;51.40;;;;;;5110889;28;20040;-64
2023/04/10 05:29:00;;;;;;;26.05;19.42;;;20.00;51.40;;;;;;5094799;28;20044;-64
2023/04/10 05:31:25;;;;;;;24.85;18.67;;;20.00;51.40;;;;;;5093958;28;20044;-64
2023/04/10 05:33:51;;;;;;;24.58;19.20;;;20.00;51.30;;;;;;5094856;28;20135;-64
2023/04/10 05:36:17;;;;;;;26.33;19.42;;;20.00;51.30;;;;;;5094466;28;20048;-64
2023/04/10 05:38:42;;;;;;;25.38;19.45;;;20.00;51.30;;;;;;5094326;28;20052;-64
2023/04/10 05:41:08;;;;;;;25.45;19.40;;;20.00;51.30;;;;;;5094319;28;20058;-64
2023/04/10 05:43:33;;;;;;;24.95;18.23;;;20.00;51.20;;;;;;5094004;28;20044;-64
2023/04/10 05:45:59;;;;;;;26.55;19.67;;;20.00;51.30;;;;;;5093620;28;20128;-63
2023/04/10 05:48:25;;;;;;;28.30;20.63;;;20.00;51.30;;;;;;5094691;28;20043;-64
2023/04/10 05:50:51;;;;;;;26.15;19.92;;;20.00;51.30;;;;;;5093784;28;20039;-63
2023/04/10 05:53:18;;;;;;;28.80;19.73;;;20.00;51.30;;;;;;5093598;28;20060;-63
2023/04/10 05:55:43;;;;;;;25.77;19.70;;;20.00;51.30;;;;;;5094508;28;20055;-63
2023/04/10 05:58:09;;;;;;;27.40;19.88;;;20.00;51.40;;;;;;5093352;28;20056;-63
2023/04/10 06:00:35;;;;;;;26.73;19.58;;;20.00;51.40;;;;;;5094330;28;20534;-63
2023/04/10 06:03:02;;;;;;;25.75;18.92;;;20.00;51.50;;;;;;5092751;28;20044;-63
2023/04/10 06:05:27;;;;;;;24.40;18.80;;;20.00;51.50;;;;;;5092144;28;20068;-64
2023/04/10 06:07:53;;;;;;;25.52;18.25;;;20.10;51.60;;;;;;5093072;28;20044;-63
2023/04/10 06:10:18;;;;;;;25.20;19.15;;;20.10;51.70;;;;;;5092118;28;20036;-62
2023/04/10 06:12:44;;;;;;;27.83;19.45;;;20.10;51.60;;;;;;5092292;28;20044;-61
2023/04/10 06:15:10;;;;;;;28.15;20.42;;;20.10;51.80;;;;;;5092693;28;20040;-62
2023/04/10 06:17:42;;;;;;;28.15;19.65;;;20.10;51.80;;;;;;5092563;28;20043;-62
2023/04/10 06:20:08;;;;;;;26.95;18.48;;;20.10;51.90;;;;;;5090609;28;20049;-63
2023/04/10 06:22:34;;;;;;;26.42;18.95;;;20.10;51.90;;;;;;5093430;28;20048;-62
2023/04/10 06:24:59;;;;;;;27.33;20.00;;;20.10;51.90;;;;;;5093043;28;20063;-63
2023/04/10 06:27:26;;;;;;;28.45;20.63;;;20.10;52.00;;;;;;5092897;28;20032;-62
2023/04/10 06:29:52;;;;;;;25.40;19.55;;;20.20;52.10;;;;;;5093792;28;20491;-63
2023/04/10 06:32:17;;;;;;;31.52;19.77;;;20.10;52.10;;;;;;5091478;28;20048;-61
2023/04/10 06:34:43;;;;;;;31.42;20.00;;;20.20;52.20;;;;;;5091643;28;20032;-62
2023/04/10 06:37:09;;;;;;;28.02;20.40;;;20.20;52.30;;;;;;5093014;28;20120;-62
2023/04/10 06:39:34;;;;;;;28.38;20.38;;;20.20;52.40;;;;;;5096916;28;20055;-62
2023/04/10 06:42:01;;;;;;;27.15;21.15;;;20.20;52.60;;;;;;5091712;28;20046;-62
2023/04/10 06:44:27;;;;;;;31.80;22.30;;;20.30;52.70;;;;;;5091452;28;20125;-61
2023/04/10 06:46:52;;;;;;;29.75;21.70;;;20.30;52.70;;;;;;5093363;28;20067;-63
2023/04/10 06:49:18;;;;;;;28.00;19.52;;;20.30;52.70;;;;;;5107919;28;20054;-61
2023/04/10 06:51:44;;;;;;;27.85;20.20;;;20.30;52.80;;;;;;5112214;28;20036;-62
2023/04/10 06:54:10;;;;;;;29.00;20.63;;;20.30;52.90;;;;;;5111976;28;20086;-61
2023/04/10 06:56:36;;;;;;;28.63;20.98;;;20.30;52.90;;;;;;5111669;28;20071;-62
2023/04/10 06:59:02;;;;;;;28.58;21.25;;;20.40;53.00;;;;;;5111611;28;20043;-61
2023/04/10 07:01:27;;;;;;;28.73;20.77;;;20.40;53.00;;;;;;5099730;28;20040;-61
2023/04/10 07:03:53;;;;;;;27.70;19.88;;;20.40;53.00;;;;;;5092116;28;20093;-61
2023/04/10 07:06:18;;;;;;;29.05;20.95;;;20.40;53.00;;;;;;5091920;28;20044;-61
2023/04/10 07:08:44;;;;;;;31.15;21.50;;;20.40;53.00;;;;;;5091026;28;20522;-62
2023/04/10 07:11:10;;;;;;;27.60;20.65;;;20.40;53.00;;;;;;5090448;28;20071;-62
2023/04/10 07:13:37;;;;;;;28.02;20.77;;;20.40;53.00;;;;;;5092507;28;20127;-62
2023/04/10 07:16:03;;;;;;;33.80;19.80;;;20.40;53.00;;;;;;5091356;28;20044;-62
2023/04/10 07:18:29;;;;;;;28.92;20.85;;;20.40;53.00;;;;;;5090791;28;20047;-62
2023/04/10 07:20:55;;;;;;;28.35;21.20;;;20.40;53.00;;;;;;5087796;28;20391;-62
2023/04/10 07:23:21;;;;;;;26.63;19.63;;;20.40;53.60;;;;;;5090363;28;20044;-62
2023/04/10 07:25:46;;;;;;;30.08;20.50;;;20.40;53.00;;;;;;5089253;28;20469;-61
2023/04/10 07:28:12;;;;;;;28.45;20.25;;;20.50;53.00;;;;;;5091966;28;20495;-61
2023/04/10 07:30:38;;;;;;;28.95;19.80;;;20.50;53.00;;;;;;5091573;28;20066;-61
2023/04/10 07:33:03;;;;;;;26.67;19.30;;;20.50;52.90;;;;;;5092210;28;20499;-62
2023/04/10 07:35:29;;;;;;;28.80;20.42;;;20.50;53.00;;;;;;5092589;28;20036;-63
2023/04/10 07:37:54;;;;;;;26.55;19.77;;;20.50;53.00;;;;;;5091525;28;20055;-62
2023/04/10 07:40:20;;;;;;;27.90;20.52;;;20.50;53.00;;;;;;5092319;28;20042;-63
2023/04/10 07:42:46;;;;;;;28.75;20.83;;;20.50;53.10;;;;;;5092506;28;20052;-62
2023/04/10 07:45:12;;;;;;;26.23;19.15;;;20.50;53.10;;;;;;5091195;28;20040;-63
2023/04/10 07:47:37;;;;;;;27.30;20.13;;;20.50;53.10;;;;;;5090354;28;20408;-62
2023/04/10 07:50:03;;;;;;;27.30;20.33;;;20.50;53.10;;;;;;5093590;28;20044;-63
2023/04/10 07:52:29;;;;;;;25.75;19.38;;;20.50;53.10;;;;;;5090636;28;20039;-63
2023/04/10 07:54:54;;;;;;;26.08;18.90;;;20.50;53.10;;;;;;5108583;28;20036;-62
2023/04/10 07:57:20;;;;;;;24.65;19.05;;;20.50;53.10;;;;;;5105627;28;20032;-63
2023/04/10 07:59:46;;;;;;;27.02;19.42;;;20.50;53.10;;;;;;5094876;28;20113;-64
2023/04/10 08:02:11;;;;;;;27.13;19.08;;;20.50;53.10;;;;;;5095959;28;20061;-64
2023/04/10 08:04:37;;;;;;;25.73;19.13;;;20.50;53.10;;;;;;5095942;28;20540;-63
2023/04/10 08:07:02;;;;;;;27.63;19.88;;;20.50;53.10;;;;;;5096572;28;20383;-63
2023/04/10 08:09:28;;;;;;;25.92;18.95;;;20.50;53.10;;;;;;5096673;28;20491;-63
2023/04/10 08:11:54;;;;;;;25.92;18.95;;;20.50;53.00;;;;;;5111731;28;20440;-63
2023/04/10 08:14:19;;;;;;;25.33;18.70;;;20.60;53.00;;;;;;5095122;28;20150;-63
2023/04/10 08:16:45;;;;;;;25.85;17.85;;;20.50;53.00;;;;;;5096286;28;20036;-63
2023/04/10 08:19:11;;;;;;;25.20;18.27;;;20.60;53.00;;;;;;5094248;28;20043;-63
2023/04/10 08:21:36;;;;;;;24.10;17.92;;;20.60;53.00;;;;;;5096254;28;20059;-63
2023/04/10 08:24:02;;;;;;;27.67;19.35;;;20.60;52.90;;;;;;5111488;28;20044;-63
2023/04/10 08:26:28;;;;;;;23.85;17.42;;;20.60;52.90;;;;;;5095483;28;20095;-63
2023/04/10 08:28:55;;;;;;;24.02;17.83;;;20.60;52.70;;;;;;5096254;28;20044;-63
2023/04/10 08:31:21;;;;;;;25.40;18.05;;;20.60;52.70;;;;;;5094636;28;20040;-63
2023/04/10 08:33:47;;;;;;;25.58;18.25;;;20.60;52.70;;;;;;5095402;28;20032;-63
2023/04/10 08:36:15;;;;;;;24.10;17.50;;;20.60;52.70;;;;;;5095868;28;20044;-63
2023/04/10 08:38:42;;;;;;;24.85;18.55;;;20.60;52.60;;;;;;5095032;28;20032;-64
2023/04/10 08:41:11;;;;;;;25.65;18.02;;;20.60;52.50;;;;;;5095124;28;20128;-63
2023/04/10 08:43:37;;;;;;;23.35;17.23;;;20.60;52.50;;;;;;5094573;28;20047;-63
2023/04/10 08:46:03;;;;;;;25.00;17.25;;;20.70;52.50;;;;;;5075600;28;20484;-68
2023/04/10 08:48:38;;;;;;;29.10;18.33;;;20.70;52.40;;;;;;5074923;28;20043;-64
2023/04/10 08:51:04;;;;;;;28.27;17.63;;;20.70;52.40;;;;;;5075119;28;20083;-63
2023/04/10 08:53:30;;;;;;;25.40;17.73;;;20.70;52.30;;;;;;5057502;28;20064;-61
2023/04/10 08:55:56;;;;;;;25.92;17.80;;;20.70;52.30;;;;;;5083851;28;20070;-64
2023/04/10 08:58:22;;;;;;;25.98;17.27;;;20.70;52.20;;;;;;5094195;28;20451;-63
2023/04/10 09:00:48;;;;;;;28.25;17.90;;;20.70;52.30;;;;;;5093270;28;20474;-63
2023/04/10 09:03:14;;;;;;;23.38;17.05;;;20.70;52.30;;;;;;5094975;28;20375;-63
2023/04/10 09:05:40;;;;;;;29.83;16.98;;;20.70;52.30;;;;;;5094853;28;20036;-64
2023/04/10 09:08:09;;;;;;;27.08;17.13;;;20.70;52.50;;;;;;5093271;28;20600;-63
2023/04/10 09:10:35;;;;;;;25.75;17.00;;;20.70;52.60;;;;;;5094940;28;20036;-64
2023/04/10 09:13:01;;;;;;;26.13;16.13;;;20.70;52.70;;;;;;5094412;28;20390;-64
2023/04/10 09:15:26;;;;;;;23.33;17.45;;;20.70;52.70;;;;;;5101678;28;20070;-64
2023/04/10 09:17:55;;;;;;;23.33;16.20;;;20.70;52.60;;;;;;5093805;28;20043;-63
2023/04/10 09:20:22;;;;;;;22.60;15.90;;;20.70;52.50;;;;;;5094428;28;20105;-63
2023/04/10 09:22:48;;;;;;;22.33;15.43;;;20.70;52.40;;;;;;5093559;28;20052;-62
2023/04/10 09:25:35;;;;;;;25.13;16.83;;;20.70;52.30;;;;;;5092675;28;20106;-63
2023/04/10 09:28:08;;;;;;;23.83;15.40;;;20.80;52.10;;;;;;5094125;28;20044;-64
2023/04/10 09:30:34;;;;;;;26.02;15.73;;;20.70;51.90;;;;;;5093997;28;20047;-62
2023/04/10 09:33:00;;;;;;;21.60;15.85;;;20.70;51.80;;;;;;5094207;28;20040;-62
2023/04/10 09:35:35;;;;;;;24.65;15.40;;;20.80;51.70;;;;;;5094362;28;20050;-64
2023/04/10 09:38:01;;;;;;;22.42;14.68;;;20.80;51.50;;;;;;5092021;28;20050;-64
2023/04/10 09:40:26;;;;;;;22.25;15.18;;;20.80;51.50;;;;;;5092959;28;20136;-64
2023/04/10 09:42:52;;;;;;;20.98;14.57;;;20.80;51.40;;;;;;5093730;28;20032;-64
2023/04/10 09:45:19;;;;;;;20.45;14.40;;;20.80;51.30;;;;;;5092652;28;20093;-65
2023/04/10 09:48:05;;;;;;;20.67;13.73;;;20.80;51.20;;;;;;5092971;28;20502;-64
2023/04/10 09:50:35;;;;;;;22.10;14.50;;;20.80;51.00;;;;;;5091527;28;20399;-64
2023/04/10 09:53:00;;;;;;;19.33;13.70;;;20.80;50.90;;;;;;5093178;28;20036;-65
2023/04/10 09:55:26;;;;;;;23.88;14.55;;;20.80;50.80;;;;;;5092625;28;20044;-64
2023/04/10 09:57:51;;;;;;;18.42;13.73;;;20.80;50.80;;;;;;5092153;28;20111;-64
2023/04/10 10:00:17;;;;;;;32.40;13.32;;;20.80;50.60;;;;;;5075908;28;20075;-64
2023/04/10 10:02:42;;;;;;;20.13;12.38;;;20.80;50.50;;;;;;5092565;28;20040;-62
2023/04/10 10:05:09;;;;;;;20.88;12.98;;;20.80;51.10;;;;;;5091363;28;20071;-63
2023/04/10 10:07:34;;;;;;;18.10;13.07;;;20.80;50.20;;;;;;5075952;28;20058;-61
2023/04/10 10:10:00;;;;;;;20.92;13.60;;;20.80;50.00;;;;;;5094096;28;20470;-65
2023/04/10 10:12:26;;;;;;;17.42;12.23;;;20.80;50.30;;;;;;5092158;28;20201;-64
2023/04/10 10:15:30;;;;;;;20.65;13.18;;;20.80;50.20;;;;;;5093452;28;20040;-61
2023/04/10 10:18:17;;;;;;;19.00;12.13;;;20.80;49.90;;;;;;5013990;28;20111;-62
2023/04/10 10:20:44;;;;;;;18.75;11.40;;;20.80;50.10;;;;;;5093441;28;20543;-62
2023/04/10 10:23:09;;;;;;;17.52;12.13;;;20.80;50.30;;;;;;5091626;28;20052;-61
2023/04/10 10:25:35;;;;;;;20.00;12.18;;;20.80;50.50;;;;;;5089119;28;20044;-62
2023/04/10 10:28:04;;;;;;;16.45;11.18;;;20.80;50.60;;;;;;5088378;28;20040;-61
2023/04/10 10:30:33;;;;;;;20.65;11.98;;;20.80;50.70;;;;;;5090965;28;20148;-61
2023/04/10 10:32:59;;;;;;;19.52;11.80;;;20.80;50.80;;;;;;5091632;28;20048;-61
2023/04/10 10:35:25;;;;;;;17.70;12.20;;;20.80;50.90;;;;;;5091764;28;20101;-61
2023/04/10 10:37:51;;;;;;;16.02;11.50;;;20.90;51.00;;;;;;5108631;28;20407;-62
2023/04/10 10:40:20;;;;;;;16.60;11.98;;;20.90;51.00;;;;;;5107168;28;20491;-61
2023/04/10 10:42:54;;;;;;;17.60;11.73;;;20.90;51.10;;;;;;5091398;28;20044;-62
2023/04/10 10:45:32;;;;;;;17.63;11.45;;;20.90;51.10;;;;;;5092704;28;20044;-62
2023/04/10 10:47:57;;;;;;;16.33;10.68;;;20.90;51.10;;;;;;5090281;28;20036;-62
2023/04/10 10:50:23;;;;;;;16.60;11.15;;;20.90;51.20;;;;;;5092348;28;20398;-62
2023/04/10 10:52:50;;;;;;;16.35;10.93;;;21.00;51.20;;;;;;5091161;28;20063;-61
2023/04/10 10:55:21;;;;;;;17.23;11.02;;;21.00;51.20;;;;;;5091448;28;20373;-63
2023/04/10 10:58:04;;;;;;;15.57;10.07;;;21.00;51.20;;;;;;5091150;28;20055;-64
2023/04/10 11:00:48;;;;;;;16.20;10.70;;;21.00;51.00;;;;;;5092020;28;20072;-63
2023/04/10 11:03:14;;;;;;;17.42;10.55;;;21.00;51.00;;;;;;5092895;28;20047;-64
2023/04/10 11:05:53;;;;;;;15.65;11.73;;;21.00;51.10;;;;;;5093330;28;20044;-64
2023/04/10 11:08:43;;;;;;;16.52;11.52;;;21.00;51.10;;;;;;5092265;28;20044;-64
2023/04/10 11:11:09;;;;;;;15.77;11.32;;;21.00;51.20;;;;;;5071155;28;20531;-63
2023/04/10 11:13:35;;;;;;;16.27;12.38;;;21.00;51.20;;;;;;5072905;28;20123;-64
2023/04/10 11:16:02;;;;;;;19.35;12.77;;;21.00;51.20;;;;;;5072023;28;20045;-64
2023/04/10 11:18:49;;;;;;;16.83;12.52;;;21.00;51.20;;;;;;5072512;28;20049;-62
2023/04/10 11:21:18;;;;;;;16.40;12.70;;;21.00;51.90;;;;;;5081453;28;20486;-63
2023/04/10 11:23:56;;;;;;;17.23;12.35;;;21.10;51.30;;;;;;5087154;28;20077;-64
2023/04/10 11:26:34;;;;;;;16.65;12.02;;;21.00;51.00;;;;;;5091926;28;20052;-63
2023/04/10 11:29:15;;;;;;;16.27;12.20;;;21.00;51.10;;;;;;5090578;28;20516;-63
2023/04/10 11:31:41;;;;;;;20.20;13.10;;;21.00;51.20;;;;;;5091796;28;20051;-63
2023/04/10 11:34:09;;;;;;;18.50;13.15;;;21.00;51.30;;;;;;5090027;28;20047;-62
2023/04/10 11:36:37;;;;;;;16.88;13.05;;;21.00;51.40;;;;;;5091493;28;20040;-63
2023/04/10 11:39:14;;;;;;;19.13;12.82;;;21.00;51.50;;;;;;5091830;28;20063;-64
2023/04/10 11:41:41;;;;;;;18.50;12.70;;;21.10;51.70;;;;;;5096617;28;20138;-63
2023/04/10 11:44:09;;;;;;;16.13;11.88;;;21.00;51.70;;;;;;5111571;28;20127;-63
2023/04/10 11:46:36;;;;;;;;;;;21.00;51.80;;;;;;5108352;28;20483;-63
2023/04/10 11:49:02;;;;;;;24.23;12.90;;;21.00;51.80;;;;;;5090623;28;20000;-63
2023/04/10 11:51:28;;;;;;;17.60;13.05;;;21.00;51.80;;;;;;5093599;28;20039;-63
2023/04/10 11:54:10;;;;;;;17.33;12.40;;;21.00;52.60;;;;;;5112713;28;20035;-63
2023/04/10 11:56:36;;;;;;;15.70;11.80;;;21.00;52.00;;;;;;5111313;28;20040;-63
2023/04/10 11:59:09;;;;;;;16.85;12.60;;;21.00;52.00;;;;;;5112170;28;20040;-63
2023/04/10 12:01:44;;;;;;;16.98;12.13;;;21.00;52.00;;;;;;5112065;28;20035;-63
2023/04/10 12:04:14;;;;;;;16.20;12.13;;;21.00;52.20;;;;;;5110226;28;20108;-62
2023/04/10 12:06:49;;;;;;;18.27;13.75;;;21.00;52.20;;;;;;5112064;28;20054;-63
2023/04/10 12:09:16;;;;;;;16.70;12.30;;;21.00;52.20;;;;;;5112321;28;20088;-62
2023/04/10 12:11:55;;;;;;;15.13;12.13;;;21.00;52.20;;;;;;5111581;28;20063;-61
2023/04/10 12:14:22;;;;;;;15.98;12.32;;;21.00;52.20;;;;;;5111294;28;20057;-61
2023/04/10 12:16:48;;;;;;;15.00;11.63;;;21.00;52.30;;;;;;5112221;28;20050;-61
2023/04/10 12:19:14;;;;;;;17.60;12.10;;;21.10;52.50;;;;;;5110062;28;20100;-61
2023/04/10 12:21:41;;;;;;;15.48;11.20;;;21.00;52.50;;;;;;5095177;28;20056;-60
2023/04/10 12:24:07;;;;;;;14.75;11.05;;;21.00;52.40;;;;;;5091611;28;20051;-61
2023/04/10 12:26:32;;;;;;;14.32;9.75;;;21.00;52.30;;;;;;5091228;28;20058;-61
2023/04/10 12:28:58;;;;;;;14.70;10.15;;;21.00;52.00;;;;;;5090451;28;20425;-61
2023/04/10 12:31:33;;;;;;;15.20;10.10;;;21.10;51.90;;;;;;5090563;28;20496;-62